createdAt,value
2022-11-29T00:01:25.813Z,36.35
2022-11-29T00:03:52.720Z,36.23
2022-11-29T00:06:21.771Z,36.04
2022-11-29T00:08:49.381Z,35.92
2022-11-29T00:11:39.153Z,36.12
2022-11-29T00:14:07.336Z,36.08
2022-11-29T00:16:34.345Z,35.86
2022-11-29T00:19:01.337Z,35.97
2022-11-29T00:21:28.293Z,35.99
2022-11-29T00:23:55.674Z,35.90
2022-11-29T00:26:22.503Z,35.70
2022-11-29T00:28:49.651Z,35.95
2022-11-29T00:31:22.110Z,35.89
2022-11-29T00:33:49.238Z,35.84
2022-11-29T00:36:16.831Z,35.63
2022-11-29T00:38:43.618Z,35.53
2022-11-29T00:43:30.182Z,35.63
2022-11-29T00:45:57.114Z,35.55
2022-11-29T00:48:23.667Z,35.71
2022-11-29T00:50:50.344Z,35.47
2022-11-29T00:53:17.039Z,35.80
2022-11-29T00:55:44.827Z,35.61
2022-11-29T00:58:11.372Z,35.61
2022-11-29T01:00:37.979Z,35.80
2022-11-29T01:03:04.509Z,35.66
2022-11-29T01:05:32.570Z,35.44
2022-11-29T01:07:59.454Z,35.56
2022-11-29T01:10:27.054Z,35.77
2022-11-29T01:12:53.898Z,35.51
2022-11-29T01:15:20.514Z,35.81
2022-11-29T01:17:49.023Z,35.49
2022-11-29T01:20:16.167Z,35.45
2022-11-29T01:22:43.071Z,35.54
2022-11-29T01:25:14.229Z,35.65
2022-11-29T01:27:41.516Z,35.69
2022-11-29T01:30:10.110Z,35.80
2022-11-29T01:32:37.566Z,36.28
2022-11-29T01:35:05.434Z,36.76
2022-11-29T01:37:32.280Z,36.60
2022-11-29T01:39:58.903Z,36.61
2022-11-29T01:42:25.504Z,36.54
2022-11-29T01:45:13.918Z,36.54
2022-11-29T01:47:45.694Z,36.42
2022-11-29T01:50:12.527Z,36.17
2022-11-29T01:52:39.455Z,36.16
2022-11-29T01:55:08.470Z,36.13
2022-11-29T01:57:36.683Z,36.01
2022-11-29T02:00:14.003Z,35.99
2022-11-29T02:02:57.279Z,36.12
2022-11-29T02:05:25.389Z,36.16
2022-11-29T02:07:56.225Z,36.03
2022-11-29T02:10:50.558Z,35.71
2022-11-29T02:13:38.299Z,35.58
2022-11-29T02:16:13.075Z,35.87
2022-11-29T02:18:45.552Z,35.65
2022-11-29T02:21:23.255Z,35.62
2022-11-29T02:24:27.226Z,35.57
2022-11-29T02:27:11.879Z,35.41
2022-11-29T02:30:04.161Z,35.45
2022-11-29T02:32:58.366Z,35.53
2022-11-29T02:35:33.692Z,35.36
2022-11-29T02:38:34.330Z,35.50
2022-11-29T02:41:15.986Z,35.43
2022-11-29T02:43:54.671Z,35.43
2022-11-29T02:46:39.278Z,35.38
2022-11-29T02:49:24.303Z,35.36
2022-11-29T02:52:22.974Z,35.53
2022-11-29T02:55:04.513Z,35.36
2022-11-29T02:57:46.101Z,35.45
2022-11-29T03:00:21.391Z,35.36
2022-11-29T03:03:03.581Z,35.35
2022-11-29T03:05:54.030Z,35.40
2022-11-29T03:08:25.602Z,35.13
2022-11-29T03:11:26.553Z,35.30
2022-11-29T03:14:42.624Z,35.24
2022-11-29T03:17:47.067Z,35.07
2022-11-29T03:20:28.958Z,35.06
2022-11-29T03:23:18.819Z,35.00
2022-11-29T03:25:59.362Z,35.13
2022-11-29T03:29:01.040Z,35.14
2022-11-29T03:31:34.978Z,34.99
2022-11-29T03:34:28.210Z,35.04
2022-11-29T03:37:14.041Z,34.74
2022-11-29T03:40:09.851Z,35.12
2022-11-29T03:42:51.378Z,34.78
2022-11-29T03:45:25.693Z,34.72
2022-11-29T03:48:07.421Z,34.64
2022-11-29T03:50:39.090Z,34.78
2022-11-29T03:53:29.002Z,34.75
2022-11-29T03:56:00.251Z,34.95
2022-11-29T03:58:29.501Z,34.63
2022-11-29T04:01:04.301Z,34.73
2022-11-29T04:04:12.815Z,34.50
2022-11-29T04:07:00.791Z,34.61
2022-11-29T04:09:36.378Z,34.53
2022-11-29T04:12:40.603Z,34.72
2022-11-29T04:15:34.686Z,34.43
2022-11-29T04:18:39.015Z,34.55
2022-11-29T04:21:33.313Z,34.39
2022-11-29T04:24:17.590Z,34.23
2022-11-29T04:27:19.275Z,34.45
2022-11-29T04:30:08.935Z,34.62
2022-11-29T04:33:01.935Z,34.45
2022-11-29T04:35:43.858Z,34.49
2022-11-29T04:38:28.441Z,34.30
2022-11-29T04:41:13.414Z,34.47
2022-11-29T04:44:01.035Z,34.26
2022-11-29T04:46:49.432Z,34.43
2022-11-29T04:49:18.886Z,34.07
2022-11-29T04:51:54.728Z,34.33
2022-11-29T04:54:46.542Z,34.21
2022-11-29T04:57:33.553Z,34.27
2022-11-29T05:00:08.127Z,34.10
2022-11-29T05:03:01.638Z,34.38
2022-11-29T05:05:41.787Z,34.45
2022-11-29T05:08:39.307Z,34.51
2022-11-29T05:11:16.163Z,35.10
2022-11-29T05:13:49.186Z,35.27
2022-11-29T05:16:31.631Z,35.49
2022-11-29T05:19:17.191Z,35.33
2022-11-29T05:22:05.559Z,35.53
2022-11-29T05:25:02.789Z,35.64
2022-11-29T05:27:41.300Z,35.69
2022-11-29T05:30:21.749Z,35.35
2022-11-29T05:33:03.986Z,35.51
2022-11-29T05:35:33.243Z,35.36
2022-11-29T05:40:56.276Z,35.30
2022-11-29T05:43:46.118Z,35.13
2022-11-29T05:46:19.889Z,35.05
2022-11-29T05:48:50.975Z,34.97
2022-11-29T05:51:29.875Z,35.08
2022-11-29T05:54:15.192Z,35.04
2022-11-29T05:57:00.136Z,34.85
2022-11-29T05:59:28.806Z,34.71
2022-11-29T06:02:23.170Z,34.70
2022-11-29T06:05:13.520Z,34.66
2022-11-29T06:07:56.285Z,34.80
2022-11-29T06:10:26.639Z,34.62
2022-11-29T06:13:26.960Z,34.63
2022-11-29T06:16:14.171Z,34.44
2022-11-29T06:19:19.286Z,34.36
2022-11-29T06:22:07.249Z,34.28
2022-11-29T06:25:05.047Z,34.48
2022-11-29T06:27:49.433Z,34.19
2022-11-29T06:30:20.818Z,34.56
2022-11-29T06:33:08.238Z,34.53
2022-11-29T06:35:46.638Z,35.02
2022-11-29T06:38:25.971Z,36.37
2022-11-29T06:41:00.114Z,37.34
2022-11-29T06:43:28.781Z,38.06
2022-11-29T06:46:12.808Z,37.76
2022-11-29T06:48:48.776Z,37.94
2022-11-29T06:51:42.760Z,37.75
2022-11-29T06:54:21.436Z,37.62
2022-11-29T06:57:04.651Z,37.62
2022-11-29T06:59:57.663Z,38.80
2022-11-29T07:03:01.450Z,39.75
2022-11-29T07:05:29.827Z,40.21
2022-11-29T07:08:03.904Z,40.03
2022-11-29T07:10:41.356Z,39.67
2022-11-29T07:13:10.661Z,39.22
2022-11-29T07:15:41.458Z,38.99
2022-11-29T07:18:11.006Z,38.79
2022-11-29T07:20:43.466Z,38.40
2022-11-29T07:23:36.320Z,38.05
2022-11-29T07:26:27.843Z,37.73
2022-11-29T07:29:11.034Z,37.32
2022-11-29T07:31:55.447Z,36.95
2022-11-29T07:34:33.720Z,36.85
2022-11-29T07:37:24.963Z,36.35
2022-11-29T07:40:15.939Z,36.11
2022-11-29T07:43:14.803Z,36.28
2022-11-29T07:45:41.521Z,36.06
2022-11-29T07:48:12.076Z,35.69
2022-11-29T07:50:39.471Z,35.68
2022-11-29T07:53:06.131Z,35.62
2022-11-29T07:55:35.112Z,35.58
2022-11-29T07:58:01.603Z,35.30
2022-11-29T08:00:28.486Z,35.36
2022-11-29T08:02:54.964Z,35.35
2022-11-29T08:05:22.429Z,35.11
2022-11-29T08:07:49.359Z,34.91
2022-11-29T08:10:16.727Z,34.98
2022-11-29T08:12:49.925Z,35.06
2022-11-29T08:15:19.421Z,34.67
2022-11-29T08:17:46.646Z,34.91
2022-11-29T08:20:15.500Z,34.70
2022-11-29T08:22:42.732Z,34.67
2022-11-29T08:25:10.611Z,34.79
2022-11-29T08:27:37.885Z,34.63
2022-11-29T08:32:28.220Z,34.87
2022-11-29T08:34:54.903Z,34.66
2022-11-29T08:37:21.444Z,34.91
2022-11-29T08:39:48.008Z,34.55
2022-11-29T08:42:14.539Z,34.50
2022-11-29T08:44:41.123Z,34.73
2022-11-29T08:47:27.546Z,34.74
2022-11-29T08:50:03.197Z,34.46
2022-11-29T08:52:54.339Z,34.53
2022-11-29T08:55:22.874Z,34.45
2022-11-29T08:57:51.791Z,34.39
2022-11-29T09:00:21.255Z,34.32
2022-11-29T09:02:48.524Z,34.46
2022-11-29T09:05:15.779Z,34.38
2022-11-29T09:07:42.491Z,34.45
2022-11-29T09:10:11.511Z,34.25
2022-11-29T09:12:39.772Z,34.46
2022-11-29T09:15:09.681Z,34.63
2022-11-29T09:17:36.287Z,34.92
2022-11-29T09:20:03.923Z,35.20
2022-11-29T09:22:31.038Z,35.21
2022-11-29T09:24:57.534Z,35.33
2022-11-29T09:27:24.147Z,35.34
2022-11-29T09:29:50.739Z,35.07
2022-11-29T09:32:17.415Z,35.19
2022-11-29T09:34:44.330Z,35.15
2022-11-29T09:37:11.151Z,35.20
2022-11-29T09:39:38.132Z,34.99
2022-11-29T09:42:27.309Z,34.97
2022-11-29T09:45:19.253Z,34.71
2022-11-29T09:48:19.335Z,34.75
2022-11-29T09:50:52.260Z,34.74
2022-11-29T09:53:28.324Z,34.53
2022-11-29T09:56:01.721Z,34.39
2022-11-29T09:58:59.283Z,34.57
2022-11-29T10:01:34.354Z,34.20
2022-11-29T10:04:05.531Z,34.27
2022-11-29T10:06:50.070Z,34.25
2022-11-29T10:09:20.547Z,33.99
2022-11-29T10:11:59.040Z,34.15
2022-11-29T10:14:36.254Z,34.10
2022-11-29T10:17:13.760Z,34.01
2022-11-29T10:19:46.696Z,33.96
2022-11-29T10:22:18.493Z,33.99
2022-11-29T10:24:48.855Z,33.87
2022-11-29T10:27:21.231Z,33.91
2022-11-29T10:29:50.971Z,33.94
2022-11-29T10:32:21.179Z,33.86
2022-11-29T10:34:49.169Z,33.75
2022-11-29T10:37:21.560Z,33.83
2022-11-29T10:39:53.061Z,33.65
2022-11-29T10:42:41.213Z,33.53
2022-11-29T10:45:29.861Z,33.68
2022-11-29T10:48:04.752Z,33.44
2022-11-29T10:50:36.935Z,33.77
2022-11-29T10:53:14.011Z,33.82
2022-11-29T10:58:27.988Z,33.88
2022-11-29T11:01:01.084Z,34.13
2022-11-29T11:03:41.167Z,34.25
2022-11-29T11:06:15.936Z,34.49
2022-11-29T11:08:46.130Z,34.50
2022-11-29T11:11:13.849Z,34.25
2022-11-29T11:13:41.635Z,34.30
2022-11-29T11:16:15.373Z,34.19
2022-11-29T11:18:42.655Z,34.03
2022-11-29T11:21:15.582Z,34.17
2022-11-29T11:23:56.199Z,34.01
2022-11-29T11:26:23.739Z,34.13
2022-11-29T11:29:00.075Z,34.13
2022-11-29T11:31:31.651Z,34.23
2022-11-29T11:34:28.604Z,34.18
2022-11-29T11:37:18.942Z,34.12
2022-11-29T11:39:48.608Z,34.01
2022-11-29T11:42:38.345Z,34.11
2022-11-29T11:45:22.863Z,33.83
2022-11-29T11:47:53.959Z,34.04
2022-11-29T11:50:28.386Z,33.84
2022-11-29T11:53:02.394Z,33.99
2022-11-29T11:55:43.108Z,33.70
2022-11-29T11:58:12.697Z,33.72
2022-11-29T12:01:04.409Z,33.75
2022-11-29T12:03:37.195Z,33.57
2022-11-29T12:06:26.117Z,33.64
2022-11-29T12:09:09.824Z,33.74
2022-11-29T12:12:03.629Z,33.71
2022-11-29T12:14:54.414Z,33.44
2022-11-29T12:17:23.670Z,33.54
2022-11-29T12:20:04.439Z,33.27
2022-11-29T12:22:46.599Z,33.31
2022-11-29T12:25:22.247Z,33.37
2022-11-29T12:27:52.988Z,33.29
2022-11-29T12:30:20.005Z,33.03
2022-11-29T12:32:46.504Z,32.90
2022-11-29T12:35:31.471Z,32.82
2022-11-29T12:38:12.847Z,32.59
2022-11-29T12:40:52.157Z,32.81
2022-11-29T12:43:24.464Z,32.97
2022-11-29T12:45:51.063Z,33.39
2022-11-29T12:48:40.319Z,33.49
2022-11-29T12:51:22.171Z,33.61
2022-11-29T12:54:24.703Z,33.66
2022-11-29T12:57:14.791Z,33.58
2022-11-29T12:59:50.559Z,33.58
2022-11-29T13:02:38.807Z,33.73
2022-11-29T13:05:20.469Z,33.73
2022-11-29T13:08:20.327Z,33.53
2022-11-29T13:11:02.680Z,33.28
2022-11-29T13:13:34.910Z,33.44
2022-11-29T13:16:39.462Z,33.51
2022-11-29T13:19:09.010Z,33.75
2022-11-29T13:21:45.748Z,33.61
2022-11-29T13:24:28.748Z,33.58
2022-11-29T13:26:56.420Z,33.62
2022-11-29T13:29:23.375Z,33.59
2022-11-29T13:31:50.530Z,33.81
2022-11-29T13:34:41.672Z,33.88
2022-11-29T13:39:59.442Z,33.93
2022-11-29T13:42:39.794Z,34.08
2022-11-29T13:45:25.406Z,34.05
2022-11-29T13:47:58.034Z,34.27
2022-11-29T13:50:43.634Z,34.26
2022-11-29T13:53:19.083Z,34.26
2022-11-29T13:55:48.694Z,34.62
2022-11-29T13:58:17.403Z,34.86
2022-11-29T14:00:44.803Z,34.85
2022-11-29T14:03:23.822Z,35.08
2022-11-29T14:06:02.822Z,35.07
2022-11-29T14:08:54.557Z,35.58
2022-11-29T14:11:26.527Z,35.45
2022-11-29T14:14:07.476Z,35.49
2022-11-29T14:16:37.786Z,35.55
2022-11-29T14:19:21.018Z,35.31
2022-11-29T14:22:02.875Z,35.17
2022-11-29T14:24:32.508Z,34.90
2022-11-29T14:29:55.054Z,34.55
2022-11-29T14:32:46.221Z,34.80
2022-11-29T14:35:13.158Z,34.55
2022-11-29T14:37:53.790Z,34.72
2022-11-29T14:40:52.419Z,34.95
2022-11-29T14:43:25.248Z,35.21
2022-11-29T14:46:09.016Z,35.43
2022-11-29T14:48:36.851Z,35.66
2022-11-29T14:51:14.430Z,35.86
2022-11-29T14:53:43.105Z,36.08
2022-11-29T14:56:42.430Z,36.13
2022-11-29T14:59:43.551Z,36.10
2022-11-29T15:02:34.745Z,36.29
2022-11-29T15:05:13.754Z,36.42
2022-11-29T15:07:50.369Z,36.30
2022-11-29T15:10:29.420Z,36.52
2022-11-29T15:12:59.328Z,36.70
2022-11-29T15:15:47.255Z,36.41
2022-11-29T15:18:30.405Z,36.50
2022-11-29T15:21:07.364Z,36.55
2022-11-29T15:23:44.096Z,36.63
2022-11-29T15:26:19.837Z,36.68
2022-11-29T15:28:46.836Z,36.60
2022-11-29T15:31:18.625Z,36.66
2022-11-29T15:33:47.866Z,36.75
2022-11-29T15:36:20.514Z,36.73
2022-11-29T15:38:47.120Z,36.66
2022-11-29T15:41:19.595Z,36.71
2022-11-29T15:43:52.509Z,36.75
2022-11-29T15:46:23.756Z,36.93
2022-11-29T15:48:50.335Z,36.82
2022-11-29T15:51:25.615Z,36.75
2022-11-29T15:54:12.735Z,36.88
2022-11-29T15:56:53.702Z,36.72
2022-11-29T15:59:43.453Z,36.95
2022-11-29T16:02:32.172Z,36.75
2022-11-29T16:05:16.157Z,36.68
2022-11-29T16:07:45.977Z,36.61
2022-11-29T16:10:16.867Z,36.86
2022-11-29T16:12:58.725Z,36.96
2022-11-29T16:15:34.315Z,36.58
2022-11-29T16:18:13.123Z,36.21
2022-11-29T16:20:40.611Z,35.98
2022-11-29T16:23:16.399Z,36.33
2022-11-29T16:26:00.925Z,36.91
2022-11-29T16:28:42.632Z,37.42
2022-11-29T16:31:17.839Z,37.50
2022-11-29T16:33:47.434Z,37.85
2022-11-29T16:36:16.420Z,37.61
2022-11-29T16:38:53.807Z,37.66
2022-11-29T16:41:35.136Z,37.58
2022-11-29T16:44:05.794Z,37.30
2022-11-29T16:46:37.463Z,37.25
2022-11-29T16:49:34.555Z,36.97
2022-11-29T16:52:02.329Z,36.56
2022-11-29T16:54:34.186Z,36.23
2022-11-29T16:57:06.405Z,35.80
2022-11-29T16:59:33.116Z,35.87
2022-11-29T17:01:59.879Z,35.49
2022-11-29T17:04:26.594Z,35.43
2022-11-29T17:06:55.135Z,35.79
2022-11-29T17:09:25.472Z,35.67
2022-11-29T17:11:55.875Z,35.83
2022-11-29T17:14:23.028Z,36.26
2022-11-29T17:16:49.769Z,36.47
2022-11-29T17:19:16.846Z,36.84
2022-11-29T17:21:44.156Z,37.16
2022-11-29T17:24:13.599Z,37.52
2022-11-29T17:26:41.326Z,37.73
2022-11-29T17:29:09.692Z,38.09
2022-11-29T17:31:36.514Z,38.37
2022-11-29T17:34:03.183Z,38.55
2022-11-29T17:36:30.615Z,38.54
2022-11-29T17:38:59.522Z,38.85
2022-11-29T17:41:26.873Z,38.91
2022-11-29T17:43:54.863Z,39.00
2022-11-29T17:46:27.510Z,39.06
2022-11-29T17:48:55.563Z,39.17
2022-11-29T17:54:13.567Z,39.47
2022-11-29T17:56:40.103Z,39.48
2022-11-29T17:59:06.741Z,39.46
2022-11-29T18:01:35.745Z,39.05
2022-11-29T18:04:05.869Z,38.10
2022-11-29T18:06:40.707Z,37.49
2022-11-29T18:09:09.161Z,37.28
2022-11-29T18:11:48.190Z,37.32
2022-11-29T18:14:23.251Z,36.91
2022-11-29T18:16:50.597Z,37.09
2022-11-29T18:19:19.985Z,36.97
2022-11-29T18:21:47.196Z,37.00
2022-11-29T18:24:13.818Z,36.80
2022-11-29T18:26:40.794Z,36.88
2022-11-29T18:29:08.329Z,36.53
2022-11-29T18:31:37.947Z,36.35
2022-11-29T18:34:07.068Z,35.90
2022-11-29T18:36:37.344Z,35.95
2022-11-29T18:39:08.846Z,35.77
2022-11-29T18:41:36.026Z,35.43
2022-11-29T18:44:07.500Z,35.48
2022-11-29T18:46:37.056Z,35.40
2022-11-29T18:49:05.817Z,35.23
2022-11-29T18:51:33.125Z,35.21
2022-11-29T18:54:00.678Z,35.16
2022-11-29T18:56:30.565Z,34.99
2022-11-29T18:58:59.358Z,35.03
2022-11-29T19:01:29.263Z,34.89
2022-11-29T19:03:58.388Z,34.97
2022-11-29T19:06:27.980Z,34.78
2022-11-29T19:08:54.855Z,34.88
2022-11-29T19:11:24.294Z,35.45
2022-11-29T19:13:56.656Z,35.67
2022-11-29T19:16:24.103Z,35.79
2022-11-29T19:18:52.958Z,35.51
2022-11-29T19:21:22.523Z,35.36
2022-11-29T19:24:00.551Z,35.16
2022-11-29T19:26:29.447Z,35.20
2022-11-29T19:28:56.399Z,34.98
2022-11-29T19:31:25.124Z,35.29
2022-11-29T19:33:54.312Z,35.64
2022-11-29T19:36:26.214Z,35.24
2022-11-29T19:38:54.441Z,35.26
2022-11-29T19:41:21.168Z,34.87
2022-11-29T19:43:48.745Z,34.92
2022-11-29T19:46:21.140Z,34.94
2022-11-29T19:48:48.685Z,34.54
2022-11-29T19:51:18.881Z,34.72
2022-11-29T19:53:46.891Z,35.04
2022-11-29T19:56:15.900Z,35.09
2022-11-29T19:58:43.774Z,35.48
2022-11-29T20:01:14.160Z,35.74
2022-11-29T20:03:41.889Z,36.22
2022-11-29T20:06:09.646Z,36.35
2022-11-29T20:08:36.748Z,36.67
2022-11-29T20:11:23.173Z,36.95
2022-11-29T20:13:58.669Z,37.03
2022-11-29T20:16:27.259Z,37.18
2022-11-29T20:18:54.778Z,37.18
2022-11-29T20:21:27.342Z,37.52
2022-11-29T20:24:02.911Z,37.58
2022-11-29T20:26:31.365Z,37.72
2022-11-29T20:28:59.708Z,37.58
2022-11-29T20:31:27.456Z,37.87
2022-11-29T20:33:57.798Z,37.94
2022-11-29T20:36:49.878Z,37.85
2022-11-29T20:39:41.646Z,37.75
2022-11-29T20:42:36.342Z,37.89
2022-11-29T20:45:06.564Z,37.99
2022-11-29T20:47:41.156Z,37.85
2022-11-29T20:50:08.449Z,38.06
2022-11-29T20:52:50.155Z,37.81
2022-11-29T20:55:17.611Z,37.83
2022-11-29T21:00:13.769Z,37.69
2022-11-29T21:02:40.615Z,37.85
2022-11-29T21:05:08.054Z,37.40
2022-11-29T21:07:35.044Z,37.72
2022-11-29T21:10:02.124Z,37.66
2022-11-29T21:12:30.132Z,37.90
2022-11-29T21:14:57.348Z,37.81
2022-11-29T21:17:31.728Z,37.73
2022-11-29T21:20:00.399Z,37.81
2022-11-29T21:22:46.871Z,37.71
2022-11-29T21:25:14.004Z,37.83
2022-11-29T21:27:41.055Z,38.06
2022-11-29T21:30:18.123Z,37.55
2022-11-29T21:32:45.666Z,37.28
2022-11-29T21:35:12.924Z,37.02
2022-11-29T21:37:40.690Z,37.12
2022-11-29T21:40:08.414Z,36.96
2022-11-29T21:42:35.099Z,36.90
2022-11-29T21:45:01.701Z,36.80
2022-11-29T21:47:28.395Z,36.73
2022-11-29T21:49:56.182Z,36.74
2022-11-29T21:52:23.302Z,36.52
2022-11-29T21:54:49.981Z,36.45
2022-11-29T21:57:16.600Z,36.38
2022-11-29T22:02:04.821Z,36.80
2022-11-29T22:04:32.148Z,37.00
2022-11-29T22:06:58.664Z,37.15
2022-11-29T22:09:25.363Z,36.86
2022-11-29T22:11:51.880Z,36.67
2022-11-29T22:14:19.191Z,36.44
2022-11-29T22:16:55.757Z,36.54
2022-11-29T22:19:42.458Z,36.24
2022-11-29T22:22:10.879Z,36.25
2022-11-29T22:24:39.922Z,36.18
2022-11-29T22:27:06.602Z,36.10
2022-11-29T22:29:33.192Z,36.02
2022-11-29T22:32:01.098Z,35.83
2022-11-29T22:34:28.346Z,35.90
2022-11-29T22:36:55.731Z,35.90
2022-11-29T22:39:22.899Z,35.93
2022-11-29T22:41:53.910Z,35.85
2022-11-29T22:44:21.376Z,35.96
2022-11-29T22:46:48.107Z,35.83
2022-11-29T22:49:14.981Z,35.76
2022-11-29T22:51:41.585Z,35.58
2022-11-29T22:54:11.321Z,35.31
2022-11-29T22:56:40.837Z,35.44
2022-11-29T22:59:08.202Z,35.36
2022-11-29T23:01:37.143Z,35.29
2022-11-29T23:04:07.046Z,35.16
2022-11-29T23:06:39.283Z,34.98
2022-11-29T23:09:10.613Z,35.05
2022-11-29T23:11:38.462Z,35.04
2022-11-29T23:14:05.009Z,35.11
2022-11-29T23:16:32.849Z,35.08
2022-11-29T23:19:00.922Z,35.14
2022-11-29T23:21:33.232Z,34.90
2022-11-29T23:24:01.445Z,35.02
2022-11-29T23:26:47.705Z,34.91
2022-11-29T23:29:18.764Z,34.88
2022-11-29T23:31:46.827Z,34.92
2022-11-29T23:34:13.991Z,34.89
2022-11-29T23:36:40.704Z,34.95
2022-11-29T23:39:07.286Z,34.98
2022-11-29T23:41:35.601Z,34.77
2022-11-29T23:44:05.918Z,35.02
2022-11-29T23:46:32.803Z,34.86
2022-11-29T23:48:59.370Z,34.83
2022-11-29T23:51:25.966Z,34.98
2022-11-29T23:53:53.723Z,34.89
2022-11-29T23:56:21.641Z,34.77
2022-11-29T23:58:48.543Z,34.84
